Time;durP1;ratioP1;P1;durP2;ratioP2;P2;SDS_P1;SDS_P2;PMS_P1;PMS_P2;Temp;Humidity;BMP_temperature;BMP_pressure;BME280_temperature;BME280_humidity;BME280_pressure;Samples;Min_cycle;Max_cycle;Signal;HPM_P1;HPM_P2
2021/01/11 00:00:34;;;;;;;94.70;47.00;;;;;;;-5.10;100.00;99592.66;2097773;28;20248;-73
2021/01/11 00:01:38;;;;;;;106.53;49.22;;;;;;;-5.05;100.00;99598.09;2096994;28;20576;-73
2021/01/11 00:02:39;;;;;;;111.95;51.00;;;;;;;-5.07;100.00;99598.31;2088490;28;20222;-73
2021/01/11 00:03:40;;;;;;;107.25;50.15;;;;;;;-5.03;100.00;99599.56;2096914;28;20218;-74
2021/01/11 00:04:41;;;;;;;117.50;51.73;;;;;;;-5.01;100.00;99596.78;2097696;28;20261;-74
2021/01/11 00:05:42;;;;;;;117.63;53.03;;;;;;;-5.04;100.00;99597.13;2097754;28;20237;-73
2021/01/11 00:06:44;;;;;;;118.30;53.57;;;;;;;-5.13;100.00;99584.22;2096181;28;20803;-73
2021/01/11 00:07:45;;;;;;;122.15;54.00;;;;;;;-5.05;100.00;99596.31;2097015;28;20573;-73
2021/01/11 00:08:47;;;;;;;118.38;54.35;;;;;;;-5.04;100.00;99602.31;2096189;28;20226;-73
2021/01/11 00:09:47;;;;;;;121.65;54.30;;;;;;;-5.06;100.00;99596.50;2097030;28;20232;-74
2021/01/11 00:10:50;;;;;;;122.10;52.83;;;;;;;-5.12;100.00;99588.44;2097439;28;20229;-73
2021/01/11 00:11:51;;;;;;;120.15;51.20;;;;;;;-5.11;100.00;99581.44;2097563;28;20271;-73
2021/01/11 00:12:52;;;;;;;119.67;51.97;;;;;;;-5.08;100.00;99590.69;2096738;28;20230;-73
2021/01/11 00:13:52;;;;;;;126.53;53.67;;;;;;;-5.13;100.00;99586.00;2088051;28;20223;-73
2021/01/11 00:14:54;;;;;;;123.90;53.93;;;;;;;-5.14;100.00;99587.81;2088122;28;20223;-74
2021/01/11 00:15:54;;;;;;;117.60;53.72;;;;;;;-5.13;100.00;99593.81;2096676;28;20245;-73
2021/01/11 00:16:55;;;;;;;123.63;53.57;;;;;;;-5.23;100.00;99580.28;2097601;28;20222;-73
2021/01/11 00:17:56;;;;;;;122.30;51.85;;;;;;;-5.16;100.00;99592.38;2097564;28;20275;-74
2021/01/11 00:18:58;;;;;;;129.27;53.83;;;;;;;-5.18;100.00;99591.78;2095995;28;20234;-74
2021/01/11 00:19:59;;;;;;;122.93;53.63;;;;;;;-5.23;100.00;99583.69;2084295;28;20231;-73
2021/01/11 00:21:00;;;;;;;125.87;54.53;;;;;;;-5.20;100.00;99590.34;2096775;28;20303;-73
2021/01/11 00:22:01;;;;;;;127.88;54.67;;;;;;;-5.29;100.00;99574.03;2097752;28;20667;-73
2021/01/11 00:23:03;;;;;;;129.13;54.50;;;;;;;-5.28;100.00;99583.44;2105134;28;20213;-73
2021/01/11 00:24:04;;;;;;;120.32;52.17;;;;;;;-5.31;100.00;99572.56;2105607;28;20224;-73
2021/01/11 00:25:06;;;;;;;131.63;54.63;;;;;;;-5.27;100.00;99577.25;2105693;28;20225;-73
2021/01/11 00:26:10;;;;;;;120.03;51.95;;;;;;;-5.22;100.00;99587.91;2096968;28;20661;-74
2021/01/11 00:27:11;;;;;;;105.90;47.72;;;;;;;-5.30;100.00;99575.03;2097484;28;20317;-73
2021/01/11 00:28:12;;;;;;;106.93;47.58;;;;;;;-5.32;100.00;99579.56;2096685;28;20633;-73
2021/01/11 00:29:13;;;;;;;110.37;50.90;;;;;;;-5.36;100.00;99577.53;2096799;28;20222;-73
2021/01/11 00:30:15;;;;;;;107.97;49.15;;;;;;;-5.31;100.00;99581.19;2097520;28;20218;-73
2021/01/11 00:31:22;;;;;;;101.03;47.70;;;;;;;-5.32;100.00;99589.97;2097513;28;20226;-73
2021/01/11 00:32:22;;;;;;;122.68;52.78;;;;;;;-5.35;100.00;99589.53;2094058;28;20226;-74
2021/01/11 00:33:23;;;;;;;123.00;54.63;;;;;;;-5.38;100.00;99588.13;2096493;28;20274;-73
2021/01/11 00:34:24;;;;;;;115.38;51.25;;;;;;;-5.41;100.00;99581.47;2096342;28;20233;-73
2021/01/11 00:35:25;;;;;;;115.37;49.70;;;;;;;-5.38;100.00;99584.72;2096922;28;20344;-73
2021/01/11 00:36:26;;;;;;;115.88;53.25;;;;;;;-5.41;100.00;99586.66;2097404;28;20248;-73
2021/01/11 00:37:27;;;;;;;112.40;52.57;;;;;;;-5.38;100.00;99575.13;2104317;28;20225;-74
2021/01/11 00:38:29;;;;;;;121.38;52.97;;;;;;;-5.26;100.00;99586.66;2105673;28;20222;-73
2021/01/11 00:39:30;;;;;;;123.80;55.75;;;;;;;-5.27;100.00;99577.25;2105514;28;20263;-73
2021/01/11 00:40:31;;;;;;;120.38;54.15;;;;;;;-5.25;100.00;99580.47;2105556;28;20575;-73
2021/01/11 00:41:32;;;;;;;127.40;55.33;;;;;;;-5.26;100.00;99572.84;2105299;28;20237;-73
2021/01/11 00:42:34;;;;;;;129.85;58.25;;;;;;;-5.22;100.00;99577.50;2105605;28;20636;-73
2021/01/11 00:43:36;;;;;;;134.38;57.75;;;;;;;-5.21;100.00;99573.94;2095860;28;20221;-74
2021/01/11 00:44:36;;;;;;;132.98;59.08;;;;;;;-5.18;100.00;99580.56;2096226;28;20229;-75
2021/01/11 00:45:38;;;;;;;137.60;60.03;;;;;;;-5.19;100.00;99581.56;2105424;28;20225;-74
2021/01/11 00:46:38;;;;;;;127.22;58.08;;;;;;;-5.16;100.00;99571.59;2105582;28;20228;-74
2021/01/11 00:47:40;;;;;;;138.20;58.60;;;;;;;-5.12;100.00;99585.84;2096258;28;20305;-73
2021/01/11 00:48:43;;;;;;;129.30;54.95;;;;;;;-5.13;100.00;99576.41;2088625;28;20254;-73
2021/01/11 00:49:44;;;;;;;134.40;56.83;;;;;;;-5.20;100.00;99566.94;2096595;28;20218;-73
2021/01/11 00:50:45;;;;;;;128.18;56.92;;;;;;;-5.11;100.00;99576.25;2096470;28;20229;-73
2021/01/11 00:51:47;;;;;;;125.22;54.80;;;;;;;-5.11;100.00;99578.84;2088256;28;20661;-73
2021/01/11 00:52:50;;;;;;;116.43;51.55;;;;;;;-5.12;100.00;99575.44;2088599;28;20226;-73
2021/01/11 00:53:58;;;;;;;131.45;53.67;;;;;;;-5.13;100.00;99573.81;2096691;28;20234;-73
2021/01/11 00:55:00;;;;;;;121.28;55.42;;;;;;;-5.11;100.00;99573.66;2096340;28;20258;-73
2021/01/11 00:56:01;;;;;;;128.20;56.80;;;;;;;-5.11;100.00;99576.25;2096490;28;20764;-73
2021/01/11 00:57:02;;;;;;;129.27;56.50;;;;;;;-5.14;100.00;99577.41;2096411;28;20669;-73
2021/01/11 00:58:22;;;;;;;136.93;59.35;;;;;;;-5.09;100.00;99576.06;2089892;28;20232;-74
2021/01/11 00:59:27;;;;;;;148.13;61.70;;;;;;;-5.14;100.00;99577.41;2088674;28;20227;-74
2021/01/11 01:00:30;;;;;;;141.65;61.97;;;;;;;-5.18;100.00;99578.75;2088100;28;20293;-74
2021/01/11 01:01:51;;;;;;;137.73;58.15;;;;;;;-5.25;100.00;99570.06;2090724;28;20222;-73
2021/01/11 01:02:56;;;;;;;140.82;61.15;;;;;;;-5.23;100.00;99570.69;2089802;28;20673;-73
2021/01/11 01:03:57;;;;;;;152.17;63.30;;;;;;;-5.21;100.00;99581.75;2101564;28;20631;-74
2021/01/11 01:04:58;;;;;;;148.45;64.47;;;;;;;-5.12;100.00;99570.25;2096182;28;20218;-73
2021/01/11 01:05:59;;;;;;;170.27;72.57;;;;;;;-5.16;100.00;99571.59;2096524;28;20357;-72
2021/01/11 01:07:00;;;;;;;185.10;77.57;;;;;;;-5.16;100.00;99576.78;2095883;28;20225;-72
2021/01/11 01:08:02;;;;;;;183.98;78.78;;;;;;;-5.13;100.00;99573.00;2096416;28;20735;-72
2021/01/11 01:09:04;;;;;;;182.98;77.68;;;;;;;-5.05;100.00;99575.50;2096366;28;20222;-72
2021/01/11 01:10:06;;;;;;;182.43;74.05;;;;;;;-5.02;100.00;99571.75;2088297;28;20245;-72
2021/01/11 01:11:09;;;;;;;176.90;72.65;;;;;;;-5.12;100.00;99554.63;2087811;28;20282;-72
2021/01/11 01:12:10;;;;;;;167.30;73.43;;;;;;;-5.07;100.00;99561.06;2096323;28;20764;-73
2021/01/11 01:13:11;;;;;;;172.95;73.28;;;;;;;-5.13;100.00;99566.00;2096415;28;20226;-71
2021/01/11 01:14:13;;;;;;;166.80;72.13;;;;;;;-5.21;100.00;99557.53;2096061;28;20234;-72
2021/01/11 01:15:14;;;;;;;188.27;79.63;;;;;;;-5.13;100.00;99555.59;2096374;28;20552;-72
2021/01/11 01:16:15;;;;;;;199.57;80.50;;;;;;;-5.06;100.00;99566.09;2105368;28;20740;-72
2021/01/11 01:17:16;;;;;;;204.57;82.68;;;;;;;-5.22;100.00;99543.69;2105190;28;20266;-72
2021/01/11 01:18:17;;;;;;;190.83;79.33;;;;;;;-5.10;100.00;99551.84;2105352;28;20225;-72
2021/01/11 01:19:18;;;;;;;202.95;81.95;;;;;;;-4.99;100.00;99551.38;2105241;28;20217;-72
2021/01/11 01:20:19;;;;;;;204.70;85.07;;;;;;;-5.00;100.00;99552.38;2105189;28;20218;-72
2021/01/11 01:21:20;;;;;;;200.70;85.85;;;;;;;-5.02;100.00;99556.94;2095765;28;20230;-72
2021/01/11 01:22:21;;;;;;;202.10;83.53;;;;;;;-5.06;100.00;99542.69;2096456;28;20245;-72
2021/01/11 01:23:22;;;;;;;203.38;83.40;;;;;;;-5.07;100.00;99545.47;2095767;28;20250;-74
2021/01/11 01:24:24;;;;;;;211.10;81.73;;;;;;;-5.01;100.00;99544.75;2087430;28;20249;-73
2021/01/11 01:25:24;;;;;;;224.75;86.13;;;;;;;-5.02;100.00;99556.94;2096255;28;20738;-73
2021/01/11 01:26:26;;;;;;;216.70;86.90;;;;;;;-5.12;100.00;99533.84;2096379;28;20646;-72
2021/01/11 01:27:26;;;;;;;204.27;87.32;;;;;;;-5.09;100.00;99537.84;2096182;28;20222;-72
2021/01/11 01:28:27;;;;;;;209.53;87.47;;;;;;;-5.13;100.00;99545.19;2096290;28;20225;-72
2021/01/11 01:29:28;;;;;;;205.93;85.07;;;;;;;-5.12;100.00;99540.81;2096965;28;20608;-72
2021/01/11 01:30:29;;;;;;;224.30;86.60;;;;;;;-5.12;100.00;99539.03;2097048;28;20347;-72
2021/01/11 01:31:30;;;;;;;217.73;87.70;;;;;;;-5.12;100.00;99538.22;2096227;28;20218;-72
2021/01/11 01:32:31;;;;;;;207.37;86.20;;;;;;;-5.15;100.00;99539.38;2096351;28;20218;-72
2021/01/11 01:33:32;;;;;;;224.65;90.40;;;;;;;-5.20;100.00;99533.13;2087890;28;20215;-72
2021/01/11 01:34:33;;;;;;;220.17;90.37;;;;;;;-5.18;100.00;99539.75;2087914;28;20222;-72
2021/01/11 01:35:34;;;;;;;211.68;87.28;;;;;;;-5.25;100.00;99544.06;2087917;28;20681;-72
2021/01/11 01:36:35;;;;;;;210.67;86.57;;;;;;;-5.28;100.00;99541.84;2087861;28;20242;-72
2021/01/11 01:37:35;;;;;;;230.35;90.18;;;;;;;-5.27;100.00;99538.25;2096239;28;20233;-72
2021/01/11 01:38:37;;;;;;;220.70;90.10;;;;;;;-5.34;100.00;99545.16;2096839;28;20240;-72
2021/01/11 01:39:38;;;;;;;224.82;91.35;;;;;;;-5.37;100.00;99535.13;2102616;28;20221;-73
2021/01/11 01:40:41;;;;;;;223.02;89.20;;;;;;;-5.43;100.00;99535.84;2096989;28;20234;-72
2021/01/11 01:41:41;;;;;;;221.95;89.43;;;;;;;-5.44;100.00;99545.44;2096923;28;20225;-72
2021/01/11 01:42:42;;;;;;;212.53;91.70;;;;;;;-5.47;100.00;99535.41;2096138;28;20315;-72
2021/01/11 01:43:43;;;;;;;218.77;90.45;;;;;;;-5.48;100.00;99538.16;2087879;28;20762;-72
2021/01/11 01:44:44;;;;;;;219.20;88.13;;;;;;;-5.52;100.00;99531.72;2095652;28;20364;-72
2021/01/11 01:45:45;;;;;;;219.45;88.03;;;;;;;-5.57;100.00;99523.66;2096292;28;20567;-73
2021/01/11 01:46:46;;;;;;;209.37;85.10;;;;;;;-5.53;100.00;99538.72;2097036;28;20238;-72
2021/01/11 01:47:47;;;;;;;193.52;79.78;;;;;;;-5.53;100.00;99536.13;2097064;28;20679;-72
2021/01/11 01:48:48;;;;;;;184.57;77.10;;;;;;;-5.56;100.00;99538.25;2096864;28;20359;-72
2021/01/11 01:49:49;;;;;;;164.55;67.88;;;;;;;-5.64;100.00;99539.19;2096083;28;20464;-72
2021/01/11 01:50:51;;;;;;;156.20;66.63;;;;;;;-5.77;100.00;99518.19;2096122;28;20321;-72
2021/01/11 01:51:52;;;;;;;172.05;71.93;;;;;;;-5.70;100.00;99538.09;2096202;28;20457;-73
2021/01/11 01:52:53;;;;;;;181.48;72.35;;;;;;;-5.71;100.00;99531.28;2096924;28;20283;-73
2021/01/11 01:53:55;;;;;;;183.35;74.55;;;;;;;-5.69;100.00;99534.50;2096039;28;20276;-72
2021/01/11 01:54:57;;;;;;;176.02;73.13;;;;;;;-5.73;100.00;99532.47;2096199;28;20222;-72
2021/01/11 01:55:58;;;;;;;169.90;71.40;;;;;;;-5.76;100.00;99530.19;2096201;28;20318;-72
2021/01/11 01:56:59;;;;;;;155.80;67.70;;;;;;;-5.79;100.00;99536.56;2087880;28;20226;-72
2021/01/11 01:58:03;;;;;;;164.82;69.20;;;;;;;-5.84;100.00;99531.09;2087171;28;20229;-72
2021/01/11 01:59:05;;;;;;;150.32;64.45;;;;;;;-5.88;100.00;99523.84;2096223;28;20696;-72
2021/01/11 02:00:09;;;;;;;158.55;64.25;;;;;;;-5.91;100.00;99534.59;2096064;28;20296;-72
2021/01/11 02:01:14;;;;;;;149.95;65.90;;;;;;;-5.97;100.00;99528.34;2095869;28;20222;-72
2021/01/11 02:02:15;;;;;;;147.35;63.47;;;;;;;-6.03;100.00;99526.44;2096133;28;20222;-72
2021/01/11 02:03:16;;;;;;;147.15;63.25;;;;;;;-6.05;100.00;99529.22;2096091;28;20276;-72
2021/01/11 02:04:17;;;;;;;147.82;64.35;;;;;;;-6.15;100.00;99514.88;2096983;28;20226;-72
2021/01/11 02:05:18;;;;;;;149.97;61.80;;;;;;;-6.10;100.00;99530.72;2096963;28;20297;-72
2021/01/11 02:06:19;;;;;;;150.73;63.67;;;;;;;-6.14;100.00;99522.50;2096720;28;20669;-72
2021/01/11 02:07:32;;;;;;;145.68;62.85;;;;;;;-6.17;100.00;99527.22;2096883;28;20637;-73
2021/01/11 02:08:37;;;;;;;138.82;60.95;;;;;;;-6.20;100.00;99525.78;2097127;28;20237;-73
2021/01/11 02:09:43;;;;;;;143.77;63.13;;;;;;;-6.30;100.00;99510.47;2102447;28;20312;-73
2021/01/11 02:10:55;;;;;;;141.85;62.95;;;;;;;-6.24;100.00;99519.34;2096033;28;20225;-73
2021/01/11 02:12:02;;;;;;;164.25;67.47;;;;;;;-6.20;100.00;99527.59;2095858;28;20298;-73
2021/01/11 02:13:26;;;;;;;164.82;68.28;;;;;;;-6.33;100.00;99513.44;2096899;28;20222;-72
2021/01/11 02:14:40;;;;;;;172.30;68.63;;;;;;;-6.30;100.00;99510.47;2070381;28;20243;-73
2021/01/11 02:15:46;;;;;;;168.13;67.97;;;;;;;-6.23;100.00;99527.94;2094496;28;20252;-73
2021/01/11 02:16:52;;;;;;;178.48;72.85;;;;;;;-6.31;100.00;99515.84;2096960;28;20257;-73
2021/01/11 02:17:59;;;;;;;182.18;74.45;;;;;;;-6.26;100.00;99522.09;2093731;28;20313;-73
2021/01/11 02:19:11;;;;;;;173.57;68.53;;;;;;;-6.22;100.00;99526.97;2088524;28;20253;-73
2021/01/11 02:20:42;;;;;;;181.23;72.00;;;;;;;-6.28;100.00;99521.47;2090411;28;20230;-73
2021/01/11 02:22:03;;;;;;;180.30;73.07;;;;;;;-6.40;100.00;99522.09;2097194;28;20233;-72
2021/01/11 02:23:16;;;;;;;187.48;76.05;;;;;;;-6.36;100.00;99526.72;2097366;28;20276;-73
2021/01/11 02:24:50;;;;;;;184.73;77.00;;;;;;;-6.40;100.00;99522.09;2097735;28;20233;-72
2021/01/11 02:25:54;;;;;;;205.63;78.68;;;;;;;-6.37;100.00;99519.94;2106098;28;20233;-72
2021/01/11 02:27:04;;;;;;;202.30;80.95;;;;;;;-6.39;100.00;99523.69;2095530;28;20232;-72
2021/01/11 02:28:20;;;;;;;202.45;81.60;;;;;;;-6.43;100.00;99523.22;2097909;28;20218;-72
2021/01/11 02:29:31;;;;;;;207.55;83.38;;;;;;;-6.45;100.00;99520.00;2100199;28;20221;-72
2021/01/11 02:30:34;;;;;;;199.80;79.47;;;;;;;-6.47;100.00;99523.75;2106394;28;20259;-73
2021/01/11 02:31:35;;;;;;;225.60;85.07;;;;;;;-6.50;100.00;99517.13;2097535;28;20226;-73
2021/01/11 02:32:38;;;;;;;214.23;89.37;;;;;;;-6.54;100.00;99515.84;2097589;28;20218;-73
2021/01/11 02:33:40;;;;;;;238.40;93.43;;;;;;;-6.57;100.00;99514.44;2097515;28;20229;-73
2021/01/11 02:34:41;;;;;;;231.40;94.57;;;;;;;-6.53;100.00;99521.84;2097392;28;20250;-72
2021/01/11 02:36:01;;;;;;;248.57;97.23;;;;;;;-6.53;100.00;99524.44;2097393;28;20237;-73
2021/01/11 02:37:02;;;;;;;235.60;94.78;;;;;;;-6.54;100.00;99521.03;2106261;28;20308;-73
2021/01/11 02:38:04;;;;;;;251.20;97.10;;;;;;;-6.55;100.00;99516.84;2106398;28;20245;-73
2021/01/11 02:39:05;;;;;;;242.98;93.40;;;;;;;-6.64;100.00;99503.13;2106344;28;20229;-72
2021/01/11 02:40:08;;;;;;;229.57;94.47;;;;;;;-6.57;100.00;99514.44;2097522;28;20214;-73
2021/01/11 02:41:09;;;;;;;245.20;97.10;;;;;;;-6.52;100.00;99516.47;2097389;28;20284;-74
2021/01/11 02:42:10;;;;;;;228.50;91.40;;;;;;;-6.58;100.00;99504.22;2106441;28;20267;-73
2021/01/11 02:43:11;;;;;;;227.03;94.00;;;;;;;-6.53;100.00;99520.06;2097203;28;20253;-73
2021/01/11 02:44:12;;;;;;;231.88;93.28;;;;;;;-6.52;100.00;99511.28;2090068;28;20237;-73
2021/01/11 02:45:13;;;;;;;230.97;97.43;;;;;;;-6.53;100.00;99514.06;2104733;28;20309;-73
2021/01/11 02:46:16;;;;;;;248.68;97.18;;;;;;;-6.57;100.00;99511.81;2106581;28;20313;-73
2021/01/11 02:47:19;;;;;;;239.70;95.30;;;;;;;-6.63;100.00;99498.75;2106366;28;20222;-74
2021/01/11 02:48:23;;;;;;;233.80;93.38;;;;;;;-6.60;100.00;99509.59;2106418;28;20214;-73
2021/01/11 02:49:25;;;;;;;229.73;95.20;;;;;;;-6.62;100.00;99498.56;2106019;28;20775;-73
2021/01/11 02:50:26;;;;;;;243.65;98.53;;;;;;;-6.63;100.00;99499.53;2089052;28;20257;-73
2021/01/11 02:51:31;;;;;;;251.18;100.80;;;;;;;-6.52;100.00;99511.28;2089403;28;20226;-74
2021/01/11 02:52:37;;;;;;;227.18;92.28;;;;;;;-6.49;100.00;99502.38;2106405;28;20214;-74
2021/01/11 02:53:44;;;;;;;239.90;95.45;;;;;;;-6.48;100.00;99507.38;2096820;28;20224;-74
2021/01/11 02:54:51;;;;;;;257.08;98.40;;;;;;;-6.47;100.00;99503.81;2098345;28;20218;-73
2021/01/11 02:55:56;;;;;;;242.27;96.53;;;;;;;-6.47;100.00;99510.78;2106095;28;20220;-74
2021/01/11 02:57:02;;;;;;;253.65;98.05;;;;;;;-6.51;100.00;99506.94;2106459;28;20229;-73
2021/01/11 02:58:08;;;;;;;236.63;94.85;;;;;;;-6.48;100.00;99514.38;2097099;28;20617;-73
2021/01/11 02:59:16;;;;;;;236.68;93.07;;;;;;;-6.47;100.00;99510.78;2097854;28;20222;-73
2021/01/11 03:00:17;;;;;;;247.88;97.30;;;;;;;-6.46;100.00;99515.78;2106431;28;20675;-73
2021/01/11 03:01:21;;;;;;;252.65;98.00;;;;;;;-6.46;100.00;99507.19;2097402;28;20230;-73
2021/01/11 03:02:23;;;;;;;256.92;97.32;;;;;;;-6.40;100.00;99515.09;2088987;28;20219;-75
2021/01/11 03:03:25;;;;;;;253.95;99.10;;;;;;;-6.38;100.00;99518.31;2089738;28;20226;-73
2021/01/11 03:04:27;;;;;;;235.68;95.50;;;;;;;-6.41;100.00;99520.47;2097514;28;20291;-74
2021/01/11 03:05:28;;;;;;;261.70;101.47;;;;;;;-6.39;100.00;99515.91;2106381;28;20225;-73
2021/01/11 03:06:30;;;;;;;259.85;100.95;;;;;;;-6.40;100.00;99517.69;2106323;28;20240;-73
2021/01/11 03:07:32;;;;;;;245.13;101.47;;;;;;;-6.44;100.00;99510.41;2097278;28;20222;-73
2021/01/11 03:08:32;;;;;;;258.13;99.32;;;;;;;-6.42;100.00;99514.47;2097458;28;20602;-73
2021/01/11 03:09:36;;;;;;;247.43;100.80;;;;;;;-6.46;100.00;99508.00;2106344;28;20244;-73
2021/01/11 03:10:37;;;;;;;236.15;98.68;;;;;;;-6.45;100.00;99508.81;2099624;28;20233;-74
2021/01/11 03:11:38;;;;;;;237.20;97.33;;;;;;;-6.42;100.00;99505.88;2097978;28;20625;-74
2021/01/11 03:12:38;;;;;;;245.40;98.28;;;;;;;-6.42;100.00;99506.69;2097802;28;20229;-73
2021/01/11 03:13:40;;;;;;;243.47;98.40;;;;;;;-6.41;100.00;99508.31;2097254;28;20241;-73
2021/01/11 03:14:41;;;;;;;244.70;99.38;;;;;;;-6.53;100.00;99491.50;2088944;28;20230;-73
2021/01/11 03:15:42;;;;;;;257.30;101.90;;;;;;;-6.48;100.00;99501.38;2097380;28;20260;-73
2021/01/11 03:16:43;;;;;;;255.05;97.85;;;;;;;-6.47;100.00;99503.81;2098058;28;20695;-73
2021/01/11 03:17:45;;;;;;;245.05;96.28;;;;;;;-6.45;100.00;99507.03;2096442;28;20214;-73
2021/01/11 03:18:45;;;;;;;256.17;96.55;;;;;;;-6.45;100.00;99504.44;2097267;28;20226;-74
2021/01/11 03:19:47;;;;;;;248.07;96.40;;;;;;;-6.48;100.00;99499.59;2097954;28;20305;-73
2021/01/11 03:20:47;;;;;;;244.18;93.85;;;;;;;-6.51;100.00;99497.34;2098035;28;20229;-73
2021/01/11 03:21:49;;;;;;;239.50;94.70;;;;;;;-6.53;100.00;99506.28;2098025;28;20352;-73
2021/01/11 03:22:50;;;;;;;233.50;91.50;;;;;;;-6.67;100.00;99481.91;2098006;28;20293;-73
2021/01/11 03:23:51;;;;;;;241.07;93.60;;;;;;;-6.63;100.00;99496.16;2098138;28;20281;-74
2021/01/11 03:24:52;;;;;;;232.27;93.70;;;;;;;-6.71;100.00;99494.41;2105780;28;20225;-74
2021/01/11 03:25:54;;;;;;;229.40;90.40;;;;;;;-6.68;100.00;99504.47;2097833;28;20232;-74
2021/01/11 03:26:57;;;;;;;221.32;91.28;;;;;;;-6.70;100.00;99498.63;2097835;28;20312;-72
2021/01/11 03:27:58;;;;;;;241.02;91.97;;;;;;;-6.72;100.00;99507.56;2097894;28;20218;-74
2021/01/11 03:28:59;;;;;;;228.07;89.15;;;;;;;-6.75;100.00;99500.13;2097241;28;20225;-73
2021/01/11 03:30:01;;;;;;;216.57;88.67;;;;;;;-6.77;100.00;99504.69;2088510;28;20222;-73
2021/01/11 03:31:01;;;;;;;235.00;91.88;;;;;;;-6.78;100.00;99500.47;2097157;28;20452;-72
2021/01/11 03:32:04;;;;;;;230.33;88.60;;;;;;;-6.92;100.00;99484.69;2098043;28;20217;-73
2021/01/11 03:33:04;;;;;;;218.27;90.18;;;;;;;-6.85;100.00;99501.19;2096889;28;20222;-73
2021/01/11 03:34:06;;;;;;;225.60;87.30;;;;;;;-6.89;100.00;99506.88;2096977;28;20311;-73
2021/01/11 03:35:07;;;;;;;222.20;88.93;;;;;;;-6.89;100.00;99507.69;2096388;28;20218;-74
2021/01/11 03:36:08;;;;;;;217.38;89.15;;;;;;;-6.95;100.00;99498.00;2097096;28;20313;-73
2021/01/11 03:37:12;;;;;;;226.20;88.03;;;;;;;-6.93;100.00;99501.22;2096232;28;20228;-73
2021/01/11 03:38:13;;;;;;;232.25;91.30;;;;;;;-7.09;100.00;99479.78;2097100;28;20309;-74
2021/01/11 03:39:14;;;;;;;222.18;89.35;;;;;;;-6.98;100.00;99503.53;2097718;28;20230;-73
2021/01/11 03:40:15;;;;;;;222.03;87.60;;;;;;;-6.96;100.00;99505.94;2097738;28;20221;-73
2021/01/11 03:41:16;;;;;;;230.52;93.00;;;;;;;-6.96;100.00;99511.94;2096494;28;20229;-73
2021/01/11 03:42:17;;;;;;;218.23;86.97;;;;;;;-7.01;100.00;99505.66;2097053;28;20799;-74
2021/01/11 03:43:18;;;;;;;235.35;93.72;;;;;;;-6.99;100.00;99501.91;2096887;28;20226;-73
2021/01/11 03:44:19;;;;;;;234.87;92.17;;;;;;;-7.02;100.00;99502.25;2097121;28;20222;-73
2021/01/11 03:45:20;;;;;;;227.10;92.32;;;;;;;-7.02;100.00;99497.06;2097975;28;20218;-73
2021/01/11 03:46:21;;;;;;;229.67;91.07;;;;;;;-7.11;100.00;99487.75;2097851;28;20293;-73
2021/01/11 03:47:23;;;;;;;237.10;93.03;;;;;;;-7.02;100.00;99501.47;2097351;28;20661;-73
2021/01/11 03:48:24;;;;;;;241.35;93.57;;;;;;;-7.06;100.00;99500.97;2097675;28;20236;-73
2021/01/11 03:49:25;;;;;;;228.55;91.97;;;;;;;-7.05;100.00;99506.97;2097332;28;20293;-73
2021/01/11 03:50:26;;;;;;;220.93;92.72;;;;;;;-7.06;100.00;99510.53;2097760;28;20222;-74
2021/01/11 03:51:27;;;;;;;246.13;93.90;;;;;;;-7.07;100.00;99504.56;2097695;28;20230;-74
2021/01/11 03:52:29;;;;;;;236.70;92.13;;;;;;;-7.09;100.00;99511.69;2097918;28;20234;-73
2021/01/11 03:53:29;;;;;;;235.70;92.43;;;;;;;-7.12;100.00;99506.88;2096390;28;20245;-73
2021/01/11 03:54:30;;;;;;;219.67;88.50;;;;;;;-7.11;100.00;99511.06;2088532;28;20218;-73
2021/01/11 03:55:31;;;;;;;218.93;89.35;;;;;;;-7.13;100.00;99510.41;2097111;28;20229;-73
2021/01/11 03:56:32;;;;;;;218.73;89.00;;;;;;;-7.16;100.00;99511.56;2096881;28;20676;-73
2021/01/11 03:57:33;;;;;;;230.13;92.95;;;;;;;-7.21;100.00;99507.88;2096823;28;20233;-73
2021/01/11 03:58:35;;;;;;;215.30;86.90;;;;;;;-7.23;100.00;99500.25;2097515;28;20305;-73
2021/01/11 03:59:35;;;;;;;224.50;89.90;;;;;;;-7.20;100.00;99509.50;2097690;28;20301;-73
2021/01/11 04:00:37;;;;;;;218.50;86.33;;;;;;;-7.20;100.00;99509.50;2097679;28;20239;-73
2021/01/11 04:01:37;;;;;;;227.07;90.78;;;;;;;-7.21;100.00;99510.47;2096526;28;20229;-74
2021/01/11 04:02:39;;;;;;;225.83;88.73;;;;;;;-7.22;100.00;99512.25;2096857;28;20225;-73
2021/01/11 04:03:40;;;;;;;217.90;88.25;;;;;;;-7.24;100.00;99510.81;2097798;28;20237;-74
2021/01/11 04:04:41;;;;;;;220.93;88.97;;;;;;;-7.24;100.00;99508.22;2096840;28;20250;-74
2021/01/11 04:05:43;;;;;;;212.13;87.00;;;;;;;-7.26;100.00;99510.19;2096870;28;20237;-73
2021/01/11 04:06:44;;;;;;;212.32;89.40;;;;;;;-7.28;100.00;99506.94;2096796;28;20241;-73
2021/01/11 04:07:45;;;;;;;227.57;92.10;;;;;;;-7.28;100.00;99505.16;2088630;28;20238;-73
2021/01/11 04:08:47;;;;;;;225.03;88.83;;;;;;;-7.36;100.00;99499.22;2088141;28;20225;-74
2021/01/11 04:09:47;;;;;;;236.27;91.18;;;;;;;-7.24;100.00;99518.59;2096865;28;20229;-74
2021/01/11 04:10:49;;;;;;;231.33;91.40;;;;;;;-7.26;100.00;99502.41;2097633;28;20225;-74
2021/01/11 04:11:49;;;;;;;216.55;87.35;;;;;;;-7.22;100.00;99507.06;2095921;28;20241;-73
2021/01/11 04:12:51;;;;;;;230.67;88.27;;;;;;;-7.30;100.00;99506.28;2096938;28;20301;-73
2021/01/11 04:13:51;;;;;;;215.32;87.15;;;;;;;-7.28;100.00;99510.34;2096356;28;20230;-74
2021/01/11 04:14:53;;;;;;;222.00;89.80;;;;;;;-7.27;100.00;99508.56;2096714;28;20748;-74
2021/01/11 04:15:53;;;;;;;221.38;90.53;;;;;;;-7.33;100.00;99510.03;2096736;28;20225;-74
2021/01/11 04:16:55;;;;;;;219.93;90.37;;;;;;;-7.28;100.00;99501.78;2096792;28;20226;-73
2021/01/11 04:17:56;;;;;;;218.95;88.53;;;;;;;-7.29;100.00;99506.16;2097357;28;20222;-73
2021/01/11 04:18:57;;;;;;;236.57;91.88;;;;;;;-7.27;100.00;99506.78;2097373;28;20715;-73
2021/01/11 04:19:58;;;;;;;233.70;92.82;;;;;;;-7.26;100.00;99515.38;2096586;28;20309;-73
2021/01/11 04:20:59;;;;;;;231.83;91.40;;;;;;;-7.25;100.00;99511.78;2087899;28;20261;-74
2021/01/11 04:22:01;;;;;;;248.73;95.88;;;;;;;-7.27;100.00;99501.59;2087986;28;20230;-73
2021/01/11 04:23:03;;;;;;;232.32;97.05;;;;;;;-7.28;100.00;99501.78;2088357;28;20783;-73
2021/01/11 04:24:05;;;;;;;245.10;93.95;;;;;;;-7.24;100.00;99497.84;2096741;28;20581;-73
2021/01/11 04:25:07;;;;;;;240.43;97.05;;;;;;;-7.29;100.00;99500.97;2097447;28;20222;-73
2021/01/11 04:26:08;;;;;;;236.68;98.82;;;;;;;-7.25;100.00;99506.59;2103046;28;20257;-73
2021/01/11 04:27:09;;;;;;;253.55;96.38;;;;;;;-7.29;100.00;99511.34;2096501;28;20225;-73
2021/01/11 04:28:10;;;;;;;242.38;96.50;;;;;;;-7.31;100.00;99496.91;2096700;28;20226;-74
2021/01/11 04:29:11;;;;;;;245.77;98.77;;;;;;;-7.32;100.00;99503.06;2097361;28;20309;-73
2021/01/11 04:30:12;;;;;;;257.90;99.05;;;;;;;-7.36;100.00;99489.66;2097531;28;20694;-73
2021/01/11 04:31:14;;;;;;;258.65;98.03;;;;;;;-7.32;100.00;99495.28;2096520;28;20222;-72
2021/01/11 04:32:14;;;;;;;256.73;100.30;;;;;;;-7.31;100.00;99496.91;2088211;28;20673;-73
2021/01/11 04:33:16;;;;;;;252.73;98.53;;;;;;;-7.31;100.00;99491.72;2096686;28;20638;-73
2021/01/11 04:34:17;;;;;;;263.58;100.95;;;;;;;-7.27;100.00;99499.00;2097301;28;20692;-73
2021/01/11 04:35:20;;;;;;;242.97;96.97;;;;;;;-7.27;100.00;99493.00;2097399;28;20543;-73
2021/01/11 04:36:21;;;;;;;261.55;97.72;;;;;;;-7.32;100.00;99496.09;2096553;28;20347;-73
2021/01/11 04:37:22;;;;;;;254.70;101.07;;;;;;;-7.36;100.00;99492.25;2087481;28;20222;-73
2021/01/11 04:38:23;;;;;;;238.67;99.03;;;;;;;-7.41;100.00;99491.94;2096535;28;20704;-73
2021/01/11 04:39:24;;;;;;;259.08;98.70;;;;;;;-7.41;100.00;99495.34;2097268;28;20257;-73
2021/01/11 04:40:25;;;;;;;248.43;100.77;;;;;;;-7.43;100.00;99493.91;2097284;28;20222;-73
2021/01/11 04:41:33;;;;;;;255.40;101.20;;;;;;;-7.46;100.00;99491.66;2095692;28;20222;-73